Time;durP1;ratioP1;P1;durP2;ratioP2;P2;SDS_P1;SDS_P2;PMS_P1;PMS_P2;Temp;Humidity;BMP_temperature;BMP_pressure;BME280_temperature;BME280_humidity;BME280_pressure;Samples;Min_cycle;Max_cycle;Signal;HPM_P1;HPM_P2
2022/11/21 00:00:51;;;;;;;9.80;9.30;;;;;;;-143.83;100.00;62900.06;4929499;29;20112;-74
2022/11/21 00:03:17;;;;;;;10.07;9.57;;;;;;;-143.83;100.00;62900.06;4928004;29;20031;-74
2022/11/21 00:05:45;;;;;;;9.85;9.35;;;;;;;-143.83;100.00;62900.06;4924693;29;20123;-75
2022/11/21 00:08:12;;;;;;;9.95;9.45;;;;;;;-143.83;100.00;62900.06;4926608;29;20159;-76
2022/11/21 00:10:38;;;;;;;10.07;9.57;;;;;;;-143.83;100.00;62900.06;4921806;29;20171;-75
2022/11/21 00:13:05;;;;;;;9.30;8.90;;;;;;;-143.83;100.00;62900.06;4915746;29;20443;-75
2022/11/21 00:15:32;;;;;;;10.10;9.60;;;;;;;-143.83;100.00;62900.06;4924970;29;20070;-76
2022/11/21 00:17:57;;;;;;;9.80;9.30;;;;;;;-143.83;100.00;62900.06;4918147;29;20106;-76
2022/11/21 00:20:24;;;;;;;10.10;9.60;;;;;;;-143.83;100.00;62900.06;4913238;29;20127;-76
2022/11/21 00:22:49;;;;;;;9.35;8.95;;;;;;;-143.83;100.00;62900.06;4926723;29;20023;-76
2022/11/21 00:25:15;;;;;;;9.75;9.25;;;;;;;-143.83;100.00;62900.06;4911086;29;20078;-76
2022/11/21 00:27:40;;;;;;;9.60;9.10;;;;;;;-143.83;100.00;62900.06;4913789;29;20039;-77
2022/11/21 00:30:08;;;;;;;9.82;9.32;;;;;;;-143.83;100.00;62900.06;4921092;29;20119;-76
2022/11/21 00:32:34;;;;;;;9.82;9.32;;;;;;;-143.83;100.00;62900.06;4927302;29;20024;-75
2022/11/21 00:34:59;;;;;;;9.65;9.15;;;;;;;-143.83;100.00;62900.06;4926549;29;20459;-76
2022/11/21 00:37:25;;;;;;;9.98;9.48;;;;;;;-143.83;100.00;62900.06;4912216;29;20155;-76
2022/11/21 00:39:50;;;;;;;9.50;9.10;;;;;;;-143.83;100.00;62900.06;4909108;29;20107;-76
2022/11/21 00:42:16;;;;;;;9.82;9.32;;;;;;;-143.83;100.00;62900.06;4908335;29;20028;-75
2022/11/21 00:44:41;;;;;;;9.77;9.27;;;;;;;-143.83;100.00;62900.06;4918604;29;20024;-76
2022/11/21 00:47:07;;;;;;;9.35;8.95;;;;;;;-143.83;100.00;62900.06;4908680;29;20028;-75
2022/11/21 00:49:32;;;;;;;9.73;9.23;;;;;;;-143.83;100.00;62900.06;4929857;29;20036;-75
2022/11/21 00:51:58;;;;;;;9.88;9.38;;;;;;;-143.83;100.00;62900.06;4933933;29;20031;-76
2022/11/21 00:54:23;;;;;;;9.77;9.27;;;;;;;-143.83;100.00;62900.06;4916549;29;20418;-76
2022/11/21 00:56:49;;;;;;;10.00;9.50;;;;;;;-143.83;100.00;62900.06;4910478;29;20024;-75
2022/11/21 00:59:14;;;;;;;9.93;9.43;;;;;;;-143.83;100.00;62900.06;4928463;29;20509;-75
2022/11/21 01:01:40;;;;;;;9.40;9.00;;;;;;;-143.83;100.00;62900.06;4909276;29;20028;-76
2022/11/21 01:04:05;;;;;;;9.80;9.30;;;;;;;-143.83;100.00;62900.06;4927799;29;20384;-76
2022/11/21 01:06:31;;;;;;;9.60;9.10;;;;;;;-143.83;100.00;62900.06;4928849;29;20031;-77
2022/11/21 01:08:56;;;;;;;9.73;9.23;;;;;;;-143.83;100.00;62900.06;4909889;29;20028;-77
2022/11/21 01:11:22;;;;;;;9.88;9.38;;;;;;;-143.83;100.00;62900.06;4904709;29;20047;-77
2022/11/21 01:13:48;;;;;;;9.27;8.88;;;;;;;-143.83;100.00;62900.06;4927609;29;20031;-77
2022/11/21 01:16:17;;;;;;;9.82;9.32;;;;;;;-143.83;100.00;62900.06;4931879;29;20040;-76
2022/11/21 01:18:44;;;;;;;9.27;8.88;;;;;;;-143.83;100.00;62900.06;4910625;29;20119;-77
2022/11/21 01:21:30;;;;;;;10.40;9.90;;;;;;;-143.83;100.00;62900.06;4921976;29;20032;-77
2022/11/21 01:23:58;;;;;;;9.65;9.15;;;;;;;-143.83;100.00;62900.06;4928173;29;20048;-76
2022/11/21 01:26:26;;;;;;;9.73;9.23;;;;;;;-143.83;100.00;62900.06;4925457;29;20048;-76
2022/11/21 01:28:52;;;;;;;9.63;9.13;;;;;;;-143.83;100.00;62900.06;4925301;29;20031;-77
2022/11/21 01:31:26;;;;;;;9.70;9.20;;;;;;;-143.83;100.00;62900.06;4906890;29;20059;-77
2022/11/21 01:33:52;;;;;;;9.60;9.10;;;;;;;-143.83;100.00;62900.06;4921500;29;20023;-76
2022/11/21 01:36:28;;;;;;;9.70;9.20;;;;;;;-143.83;100.00;62900.06;4926709;29;20038;-76
2022/11/21 01:38:57;;;;;;;9.40;9.00;;;;;;;-143.83;100.00;62900.06;4916535;29;20036;-76
2022/11/21 01:41:35;;;;;;;9.98;9.48;;;;;;;-143.83;100.00;62900.06;4931721;29;20235;-76
2022/11/21 01:44:22;;;;;;;9.93;9.43;;;;;;;-143.83;100.00;62900.06;4909832;29;20047;-76
2022/11/21 01:46:48;;;;;;;9.70;9.20;;;;;;;-143.83;100.00;62900.06;4927625;29;20032;-77
2022/11/21 01:49:25;;;;;;;10.10;9.60;;;;;;;-143.83;100.00;62900.06;4929317;29;20023;-75
2022/11/21 01:52:13;;;;;;;9.40;9.00;;;;;;;-143.83;100.00;62900.06;4922824;29;20070;-74
2022/11/21 01:54:58;;;;;;;9.38;8.98;;;;;;;-143.83;100.00;62900.06;4926027;29;20035;-75
2022/11/21 01:57:38;;;;;;;9.93;9.43;;;;;;;-143.83;100.00;62900.06;4919622;29;20119;-74
2022/11/21 02:00:26;;;;;;;10.35;9.85;;;;;;;-143.83;100.00;62900.06;4924348;29;20047;-74
2022/11/21 02:03:06;;;;;;;9.70;9.20;;;;;;;-143.83;100.00;62900.06;4924435;29;20535;-75
2022/11/21 02:05:34;;;;;;;9.63;9.13;;;;;;;-143.83;100.00;62900.06;4918923;29;20036;-75
2022/11/21 02:08:20;;;;;;;9.57;9.10;;;;;;;-143.83;100.00;62900.06;4924225;29;20102;-75
2022/11/21 02:11:00;;;;;;;9.73;9.23;;;;;;;-143.83;100.00;62900.06;4920929;29;20052;-74
2022/11/21 02:13:26;;;;;;;9.50;9.00;;;;;;;-143.83;100.00;62900.06;4930741;29;20063;-76
2022/11/21 02:15:53;;;;;;;9.70;9.20;;;;;;;-143.83;100.00;62900.06;4905042;29;20123;-75
2022/11/21 02:18:18;;;;;;;10.13;9.63;;;;;;;-143.83;100.00;62900.06;4920232;29;20042;-75
2022/11/21 02:20:48;;;;;;;10.00;9.50;;;;;;;-143.83;100.00;62900.06;4926821;29;20399;-76
2022/11/21 02:23:28;;;;;;;9.98;9.48;;;;;;;-143.83;100.00;62900.06;4925318;29;20036;-76
2022/11/21 02:25:54;;;;;;;9.63;9.13;;;;;;;-143.83;100.00;62900.06;4922921;29;20205;-75
2022/11/21 02:28:26;;;;;;;10.18;9.68;;;;;;;-143.83;100.00;62900.06;4912037;29;20130;-76
2022/11/21 02:30:51;;;;;;;9.80;9.30;;;;;;;-143.83;100.00;62900.06;4920227;29;20067;-75
2022/11/21 02:33:17;;;;;;;9.80;9.30;;;;;;;-143.83;100.00;62900.06;4923474;29;20044;-76
2022/11/21 02:35:43;;;;;;;9.77;9.27;;;;;;;-143.83;100.00;62900.06;4909650;29;20134;-76
2022/11/21 02:38:29;;;;;;;9.43;9.02;;;;;;;-143.83;100.00;62900.06;4899938;29;20036;-75
2022/11/21 02:41:17;;;;;;;9.38;8.98;;;;;;;-143.83;100.00;62900.06;4918549;29;20084;-75
2022/11/21 02:43:58;;;;;;;10.30;9.80;;;;;;;-143.83;100.00;62900.06;4919430;29;20510;-76
2022/11/21 02:46:26;;;;;;;9.88;9.38;;;;;;;-143.83;100.00;62900.06;4924402;29;20047;-76
2022/11/21 02:48:53;;;;;;;10.45;9.95;;;;;;;-143.83;100.00;62900.06;4911620;29;20036;-76
2022/11/21 02:51:19;;;;;;;10.35;9.85;;;;;;;-143.83;100.00;62900.06;4931230;29;20510;-76
2022/11/21 02:53:45;;;;;;;9.63;9.15;;;;;;;-143.83;100.00;62900.06;4927460;29;20035;-76
2022/11/21 02:56:10;;;;;;;10.00;9.50;;;;;;;-143.83;100.00;62900.06;4924329;29;20032;-76
2022/11/21 02:58:36;;;;;;;9.20;8.80;;;;;;;-143.83;100.00;62900.06;4911923;29;20024;-75
2022/11/21 03:01:01;;;;;;;9.73;9.23;;;;;;;-143.83;100.00;62900.06;4922334;29;20039;-75
2022/11/21 03:03:27;;;;;;;9.73;9.23;;;;;;;-143.83;100.00;62900.06;4907769;29;20028;-76
2022/11/21 03:05:53;;;;;;;9.70;9.20;;;;;;;-143.83;100.00;62900.06;4906749;29;20091;-75
2022/11/21 03:08:19;;;;;;;9.73;9.23;;;;;;;-143.83;100.00;62900.06;4892635;29;20491;-76
2022/11/21 03:10:44;;;;;;;9.38;8.98;;;;;;;-143.83;100.00;62900.06;4922916;29;20056;-76
2022/11/21 03:13:10;;;;;;;9.30;8.90;;;;;;;-143.83;100.00;62900.06;4921374;29;20024;-76
2022/11/21 03:15:36;;;;;;;9.82;9.32;;;;;;;-143.83;100.00;62900.06;4913374;29;20039;-75
2022/11/21 03:18:02;;;;;;;10.23;9.73;;;;;;;-143.83;100.00;62900.06;4933152;29;20035;-76
2022/11/21 03:20:31;;;;;;;9.73;9.23;;;;;;;-143.83;100.00;62900.06;4929131;29;20119;-78
2022/11/21 03:22:56;;;;;;;9.52;9.10;;;;;;;-143.83;100.00;62900.06;4933735;29;20023;-78
2022/11/21 03:25:23;;;;;;;9.95;9.45;;;;;;;-143.83;100.00;62900.06;4918501;29;20047;-77
2022/11/21 03:27:51;;;;;;;9.75;9.25;;;;;;;-143.83;100.00;62900.06;4916391;29;20028;-79
2022/11/21 03:30:17;;;;;;;9.70;9.20;;;;;;;-143.83;100.00;62900.06;4934138;29;20112;-78
2022/11/21 03:32:42;;;;;;;10.02;9.52;;;;;;;-143.83;100.00;62900.06;4931339;29;20115;-78
2022/11/21 03:35:08;;;;;;;9.73;9.23;;;;;;;-143.83;100.00;62900.06;4915891;29;20053;-78
2022/11/21 03:37:34;;;;;;;9.70;9.20;;;;;;;-143.83;100.00;62900.06;4915195;29;20040;-78
2022/11/21 03:40:00;;;;;;;10.05;9.55;;;;;;;-143.83;100.00;62900.06;4934204;29;20040;-78
2022/11/21 03:42:26;;;;;;;9.98;9.48;;;;;;;-143.83;100.00;62900.06;4920667;29;20391;-78
2022/11/21 03:44:51;;;;;;;9.55;9.10;;;;;;;-143.83;100.00;62900.06;4917469;29;20059;-78
2022/11/21 03:47:17;;;;;;;9.90;9.40;;;;;;;-143.83;100.00;62900.06;4933167;29;20036;-78
2022/11/21 03:49:43;;;;;;;9.70;9.23;;;;;;;-143.83;100.00;62900.06;4912360;29;20127;-78
2022/11/21 03:52:10;;;;;;;10.38;9.88;;;;;;;-143.83;100.00;62900.06;4926764;29;20028;-78
2022/11/21 03:54:35;;;;;;;10.02;9.52;;;;;;;-143.83;100.00;62900.06;4928105;29;20046;-78
2022/11/21 03:57:01;;;;;;;9.93;9.43;;;;;;;-143.83;100.00;62900.06;4934776;29;20036;-77
2022/11/21 03:59:26;;;;;;;9.88;9.38;;;;;;;-143.83;100.00;62900.06;4934243;29;20035;-77
2022/11/21 04:01:53;;;;;;;9.60;9.15;;;;;;;-143.83;100.00;62900.06;4910003;29;20067;-76
2022/11/21 04:04:20;;;;;;;9.30;8.90;;;;;;;-143.83;100.00;62900.06;4927422;29;20031;-76
2022/11/21 04:06:45;;;;;;;9.55;9.05;;;;;;;-143.83;100.00;62900.06;4924416;29;20111;-76
2022/11/21 04:09:10;;;;;;;9.23;8.82;;;;;;;-143.83;100.00;62900.06;4928573;29;20063;-76
2022/11/21 04:11:36;;;;;;;9.73;9.23;;;;;;;-143.83;100.00;62900.06;4906325;29;20032;-76
2022/11/21 04:14:03;;;;;;;9.60;9.10;;;;;;;-143.83;100.00;62900.06;4926366;29;20119;-75
2022/11/21 04:16:28;;;;;;;9.60;9.10;;;;;;;-143.83;100.00;62900.06;4922806;29;20047;-75
2022/11/21 04:18:54;;;;;;;9.73;9.23;;;;;;;-143.83;100.00;62900.06;4908202;29;20036;-75
2022/11/21 04:21:19;;;;;;;9.75;9.25;;;;;;;-143.83;100.00;62900.06;4928133;29;20031;-76
2022/11/21 04:23:45;;;;;;;9.60;9.10;;;;;;;-143.83;100.00;62900.06;4920049;29;20051;-76
2022/11/21 04:26:10;;;;;;;9.88;9.38;;;;;;;-143.83;100.00;62900.06;4924227;29;20040;-75
2022/11/21 04:28:37;;;;;;;9.23;8.82;;;;;;;-143.83;100.00;62900.06;4925680;29;20067;-74
2022/11/21 04:31:07;;;;;;;9.60;9.10;;;;;;;-143.83;100.00;62900.06;4925781;29;20695;-74
2022/11/21 04:33:33;;;;;;;10.10;9.60;;;;;;;-143.83;100.00;62900.06;4923981;29;20042;-76
2022/11/21 04:35:58;;;;;;;9.77;9.27;;;;;;;-143.83;100.00;62900.06;4911497;29;20399;-74
2022/11/21 04:38:24;;;;;;;9.73;9.23;;;;;;;-143.83;100.00;62900.06;4928247;29;20404;-75
2022/11/21 04:40:49;;;;;;;9.80;9.30;;;;;;;-143.83;100.00;62900.06;4927302;29;20040;-77
2022/11/21 04:43:15;;;;;;;9.98;9.48;;;;;;;-143.83;100.00;62900.06;4930101;29;20490;-77
2022/11/21 04:45:43;;;;;;;9.95;9.45;;;;;;;-143.83;100.00;62900.06;4913382;29;20036;-77
2022/11/21 04:48:09;;;;;;;9.90;9.40;;;;;;;-143.83;100.00;62900.06;4936081;29;20028;-77
2022/11/21 04:50:34;;;;;;;9.85;9.35;;;;;;;-143.83;100.00;62900.06;4933306;29;20035;-76
2022/11/21 04:53:00;;;;;;;9.70;9.23;;;;;;;-143.83;100.00;62900.06;4910134;29;20380;-77
2022/11/21 04:55:29;;;;;;;9.88;9.38;;;;;;;-143.83;100.00;62900.06;4927643;29;20448;-76
2022/11/21 04:57:55;;;;;;;9.52;9.02;;;;;;;-143.83;100.00;62900.06;4925876;29;20031;-77
2022/11/21 05:00:22;;;;;;;9.75;9.25;;;;;;;-143.83;100.00;62900.06;4926354;29;20031;-76
2022/11/21 05:02:49;;;;;;;10.15;9.65;;;;;;;-143.83;100.00;62900.06;4927721;29;20468;-74
2022/11/21 05:05:14;;;;;;;9.30;8.90;;;;;;;-143.83;100.00;62900.06;4906980;29;20044;-76
2022/11/21 05:07:40;;;;;;;10.57;10.00;;;;;;;-143.83;100.00;62900.06;4928975;29;20027;-75
2022/11/21 05:10:07;;;;;;;9.30;8.90;;;;;;;-143.83;100.00;62900.06;4923400;29;20039;-77
2022/11/21 05:15:18;;;;;;;10.30;9.80;;;;;;;-143.83;100.00;62900.06;4928876;29;20039;-76
2022/11/21 05:17:45;;;;;;;10.82;10.23;;;;;;;-143.83;100.00;62900.06;4928365;29;20042;-73
2022/11/21 05:20:12;;;;;;;11.23;10.63;;;;;;;-143.83;100.00;62900.06;4891423;29;20039;-75
2022/11/21 05:22:37;;;;;;;9.52;9.07;;;;;;;-143.83;100.00;62900.06;4921015;29;20030;-75
2022/11/21 05:25:03;;;;;;;9.77;9.27;;;;;;;-143.83;100.00;62900.06;4928087;29;20052;-74
2022/11/21 05:27:30;;;;;;;9.65;9.15;;;;;;;-143.83;100.00;62900.06;4923934;29;20028;-75
2022/11/21 05:29:55;;;;;;;10.20;9.70;;;;;;;-143.83;100.00;62900.06;4928123;29;20036;-74
2022/11/21 05:32:21;;;;;;;10.25;9.75;;;;;;;-143.83;100.00;62900.06;4904754;29;20039;-74
2022/11/21 05:34:46;;;;;;;9.80;9.30;;;;;;;-143.83;100.00;62900.06;4905359;29;20082;-74
2022/11/21 05:37:12;;;;;;;10.65;10.05;;;;;;;-143.83;100.00;62900.06;4926831;29;20032;-73
2022/11/21 05:39:37;;;;;;;10.45;9.93;;;;;;;-143.83;100.00;62900.06;4924162;29;20772;-73
2022/11/21 05:42:04;;;;;;;10.40;9.90;;;;;;;-143.83;100.00;62900.06;4924876;29;20539;-73
2022/11/21 05:44:29;;;;;;;10.98;10.38;;;;;;;-143.83;100.00;62900.06;4904326;29;20024;-73
2022/11/21 05:46:55;;;;;;;9.98;9.48;;;;;;;-143.83;100.00;62900.06;4908905;29;20082;-73
2022/11/21 05:49:20;;;;;;;11.70;11.00;;;;;;;-143.83;100.00;62900.06;4921971;29;20056;-73
2022/11/21 05:51:46;;;;;;;10.48;9.98;;;;;;;-143.83;100.00;62900.06;4926907;29;20028;-73
2022/11/21 05:54:14;;;;;;;10.45;9.93;;;;;;;-143.83;100.00;62900.06;4924401;29;20034;-72
2022/11/21 05:56:39;;;;;;;10.25;9.75;;;;;;;-143.83;100.00;62900.06;4926942;29;20027;-73
2022/11/21 05:59:05;;;;;;;10.07;9.57;;;;;;;-143.83;100.00;62900.06;4909460;29;20031;-69
2022/11/21 06:04:14;;;;;;;11.32;10.70;;;;;;;-143.83;100.00;62900.06;4923006;29;20083;-74
2022/11/21 06:06:40;;;;;;;9.80;9.30;;;;;;;-143.83;100.00;62900.06;4897464;29;20419;-74
2022/11/21 06:09:06;;;;;;;10.40;9.90;;;;;;;-143.83;100.00;62900.06;4924191;29;20043;-74
2022/11/21 06:11:31;;;;;;;11.02;10.43;;;;;;;-143.83;100.00;62900.06;4906857;29;20048;-74
2022/11/21 06:13:57;;;;;;;10.82;10.23;;;;;;;-143.83;100.00;62900.06;4926740;29;20032;-73
2022/11/21 06:16:22;;;;;;;10.15;9.65;;;;;;;-143.83;100.00;62900.06;4922811;29;20287;-73
2022/11/21 06:18:51;;;;;;;11.27;10.68;;;;;;;-143.83;100.00;62900.06;4923823;29;20028;-73
2022/11/21 06:21:17;;;;;;;11.70;11.00;;;;;;;-143.83;100.00;62900.06;4905840;29;20028;-74
2022/11/21 06:23:43;;;;;;;9.80;9.30;;;;;;;-143.83;100.00;62900.06;4909958;29;20118;-73
2022/11/21 06:26:17;;;;;;;9.95;9.45;;;;;;;-143.83;100.00;62900.06;4912095;29;20036;-72
2022/11/21 06:28:44;;;;;;;10.90;10.30;;;;;;;-143.83;100.00;62900.06;4910559;29;20036;-72
2022/11/21 06:31:18;;;;;;;9.52;9.02;;;;;;;-143.83;100.00;62900.06;4910896;29;20035;-73
2022/11/21 06:33:44;;;;;;;;;;;;;;;-143.83;100.00;62900.06;4908015;29;20538;-74
2022/11/21 06:36:15;;;;;;;9.70;9.20;;;;;;;-143.83;100.00;62900.06;4924469;29;20015;-73
2022/11/21 06:38:41;;;;;;;10.73;10.13;;;;;;;-143.83;100.00;62900.06;4922943;29;20500;-73
2022/11/21 06:41:09;;;;;;;10.40;9.85;;;;;;;-143.83;100.00;62900.06;4925411;29;20398;-73
2022/11/21 06:43:34;;;;;;;10.73;10.13;;;;;;;-143.83;100.00;62900.06;4921868;29;20038;-72
2022/11/21 06:46:02;;;;;;;10.10;9.60;;;;;;;-143.83;100.00;62900.06;4906312;29;20036;-74
2022/11/21 06:48:27;;;;;;;10.05;9.55;;;;;;;-143.83;100.00;62900.06;4925140;29;20107;-73
2022/11/21 06:50:53;;;;;;;10.57;9.98;;;;;;;-143.83;100.00;62900.06;4921066;29;20132;-72
2022/11/21 06:53:19;;;;;;;11.02;10.43;;;;;;;-143.83;100.00;62900.06;4927460;29;20039;-75
2022/11/21 06:55:44;;;;;;;9.90;9.40;;;;;;;-143.83;100.00;62900.06;4915546;29;20442;-75
2022/11/21 06:58:13;;;;;;;9.43;9.02;;;;;;;-143.83;100.00;62900.06;4915007;29;20020;-75
2022/11/21 07:00:38;;;;;;;10.65;10.05;;;;;;;-143.83;100.00;62900.06;4931646;29;20036;-73
2022/11/21 07:03:04;;;;;;;10.10;9.60;;;;;;;-143.83;100.00;62900.06;4935569;29;20028;-75
2022/11/21 07:05:30;;;;;;;10.50;9.95;;;;;;;-143.83;100.00;62900.06;4929233;29;20483;-74
2022/11/21 07:08:03;;;;;;;10.25;9.75;;;;;;;-143.83;100.00;62900.06;4934392;29;20056;-76
2022/11/21 07:10:32;;;;;;;10.73;10.13;;;;;;;-143.83;100.00;62900.06;4929736;29;20044;-74
2022/11/21 07:15:44;;;;;;;10.30;9.77;;;;;;;-143.83;100.00;62900.06;4927693;29;20035;-75
2022/11/21 07:18:09;;;;;;;9.75;9.25;;;;;;;-143.83;100.00;62900.06;4928435;29;20039;-74
2022/11/21 07:20:35;;;;;;;10.73;10.13;;;;;;;-143.83;100.00;62900.06;4934600;29;20028;-75
2022/11/21 07:23:00;;;;;;;11.10;10.50;;;;;;;-143.83;100.00;62900.06;4928214;29;20326;-72
2022/11/21 07:25:26;;;;;;;10.80;10.20;;;;;;;-143.83;100.00;62900.06;4928229;29;20067;-73
2022/11/21 07:27:52;;;;;;;9.95;9.45;;;;;;;-143.83;100.00;62900.06;4927022;29;20119;-74
2022/11/21 07:30:19;;;;;;;10.50;9.95;;;;;;;-143.83;100.00;62900.06;4928798;29;20020;-74
2022/11/21 07:32:44;;;;;;;10.70;10.13;;;;;;;-143.83;100.00;62900.06;4924433;29;20463;-74
2022/11/21 07:35:10;;;;;;;10.70;10.10;;;;;;;-143.83;100.00;62900.06;4926788;29;20063;-74
2022/11/21 07:37:39;;;;;;;10.30;9.80;;;;;;;-143.83;100.00;62900.06;4927928;29;20024;-76
2022/11/21 07:40:06;;;;;;;9.65;9.15;;;;;;;-143.83;100.00;62900.06;4935028;29;20059;-76
2022/11/21 07:42:32;;;;;;;9.88;9.38;;;;;;;-143.83;100.00;62900.06;4933147;29;20055;-78
2022/11/21 07:44:58;;;;;;;9.43;9.00;;;;;;;-143.83;100.00;62900.06;4927574;29;20087;-72
2022/11/21 07:47:25;;;;;;;9.95;9.45;;;;;;;-143.83;100.00;62900.06;4927238;29;20441;-71
2022/11/21 07:49:54;;;;;;;9.90;9.40;;;;;;;-143.83;100.00;62900.06;4923245;29;20034;-73
2022/11/21 07:52:19;;;;;;;10.90;10.30;;;;;;;-143.83;100.00;62900.06;4930276;29;20491;-73
2022/11/21 07:54:44;;;;;;;10.10;9.60;;;;;;;-143.83;100.00;62900.06;4930318;29;20035;-77
2022/11/21 07:57:10;;;;;;;9.80;9.30;;;;;;;-143.83;100.00;62900.06;4937847;29;20048;-78
2022/11/21 07:59:36;;;;;;;9.45;9.00;;;;;;;-143.83;100.00;62900.06;4918632;29;20031;-77
2022/11/21 08:02:02;;;;;;;9.68;9.18;;;;;;;-143.83;100.00;62900.06;4928004;29;20031;-77
2022/11/21 08:04:29;;;;;;;11.38;10.73;;;;;;;-143.83;100.00;62900.06;4935601;29;20028;-77
2022/11/21 08:06:54;;;;;;;10.40;9.90;;;;;;;-143.83;100.00;62900.06;4925625;29;20059;-76
2022/11/21 08:09:20;;;;;;;10.07;9.57;;;;;;;-143.83;100.00;62900.06;4924577;29;20066;-77
2022/11/21 08:11:45;;;;;;;10.05;9.55;;;;;;;-143.83;100.00;62900.06;4916680;29;20035;-79
2022/11/21 08:14:12;;;;;;;10.05;9.55;;;;;;;-143.83;100.00;62900.06;4931803;29;20032;-75
2022/11/21 08:16:37;;;;;;;10.18;9.68;;;;;;;-143.83;100.00;62900.06;4939538;29;20035;-77
2022/11/21 08:19:04;;;;;;;10.45;9.93;;;;;;;-143.83;100.00;62900.06;4932319;29;20043;-78
2022/11/21 08:21:30;;;;;;;9.98;9.48;;;;;;;-143.83;100.00;62900.06;4917929;29;20039;-78
2022/11/21 08:23:55;;;;;;;10.05;9.55;;;;;;;-143.83;100.00;62900.06;4934795;29;20036;-75
2022/11/21 08:26:21;;;;;;;9.98;9.48;;;;;;;-143.83;100.00;62900.06;4908786;29;20550;-76
2022/11/21 08:28:46;;;;;;;10.73;10.18;;;;;;;-143.83;100.00;62900.06;4926402;29;20043;-75
2022/11/21 08:31:12;;;;;;;9.80;9.30;;;;;;;-143.83;100.00;62900.06;4914442;29;20028;-77
2022/11/21 08:33:37;;;;;;;10.63;10.05;;;;;;;-143.83;100.00;62900.06;4901295;29;20436;-77
2022/11/21 08:36:07;;;;;;;10.38;9.88;;;;;;;-143.83;100.00;62900.06;4911314;29;20094;-78
2022/11/21 08:38:32;;;;;;;10.35;9.85;;;;;;;-143.83;100.00;62900.06;4913899;29;20027;-76
2022/11/21 08:43:43;;;;;;;11.10;10.50;;;;;;;-143.83;100.00;62900.06;4926639;29;20031;-78
2022/11/21 08:46:08;;;;;;;10.68;10.07;;;;;;;-143.83;100.00;62900.06;4931774;29;20483;-75
2022/11/21 08:48:34;;;;;;;10.15;9.65;;;;;;;-143.83;100.00;62900.06;4934075;29;20034;-78
2022/11/21 08:51:00;;;;;;;11.73;11.05;;;;;;;-143.83;100.00;62900.06;4932064;29;20042;-75
2022/11/21 08:53:39;;;;;;;10.65;10.05;;;;;;;-143.83;100.00;62900.06;4940083;29;20027;-77
2022/11/21 08:56:04;;;;;;;10.73;10.13;;;;;;;-143.83;100.00;62900.06;4937904;29;20378;-77
2022/11/21 08:58:30;;;;;;;9.30;8.88;;;;;;;-143.83;100.00;62900.06;4929393;29;20027;-76
2022/11/21 09:00:55;;;;;;;10.73;10.13;;;;;;;-143.83;100.00;62900.06;4926293;29;20569;-79
2022/11/21 09:03:21;;;;;;;9.63;9.13;;;;;;;-143.83;100.00;62900.06;4912502;29;20111;-75
2022/11/21 09:05:48;;;;;;;10.48;9.98;;;;;;;-143.83;100.00;62900.06;4928327;29;20159;-77
2022/11/21 09:08:16;;;;;;;10.27;9.77;;;;;;;-143.83;100.00;62900.06;4925949;29;20170;-76
2022/11/21 09:10:41;;;;;;;10.90;10.30;;;;;;;-143.83;100.00;62900.06;4924400;29;20027;-72
2022/11/21 09:13:07;;;;;;;10.75;10.15;;;;;;;-143.83;100.00;62900.06;4906518;29;20403;-76
2022/11/21 09:18:16;;;;;;;10.45;9.93;;;;;;;-143.83;100.00;62900.06;4911019;29;20178;-76
2022/11/21 09:20:43;;;;;;;9.82;9.32;;;;;;;-143.83;100.00;62900.06;4925481;29;20142;-74
2022/11/21 09:23:14;;;;;;;10.02;9.52;;;;;;;-143.83;100.00;62900.06;4924480;29;20117;-78
2022/11/21 09:25:40;;;;;;;10.40;9.90;;;;;;;-143.83;100.00;62900.06;4909498;29;20044;-75
2022/11/21 09:28:07;;;;;;;9.70;9.20;;;;;;;-143.83;100.00;62900.06;4914951;29;20035;-70
2022/11/21 09:30:33;;;;;;;11.00;10.40;;;;;;;-143.83;100.00;62900.06;4926765;29;20099;-74
2022/11/21 09:33:04;;;;;;;12.13;11.43;;;;;;;-143.83;100.00;62900.06;4920539;29;20259;-70
2022/11/21 09:35:30;;;;;;;10.73;10.13;;;;;;;-143.83;100.00;62900.06;4922546;29;20035;-72
2022/11/21 09:37:57;;;;;;;10.25;9.75;;;;;;;-143.83;100.00;62900.06;4926451;29;20443;-75
2022/11/21 09:40:23;;;;;;;11.75;11.05;;;;;;;-143.83;100.00;62900.06;4923143;29;20042;-75
2022/11/21 09:43:10;;;;;;;10.73;10.13;;;;;;;-143.83;100.00;62900.06;4920656;29;20035;-76
2022/11/21 09:45:47;;;;;;;10.80;10.20;;;;;;;-143.83;100.00;62900.06;4928886;29;20027;-74
2022/11/21 09:48:18;;;;;;;10.13;9.63;;;;;;;-143.83;100.00;62900.06;4928199;29;20687;-76
2022/11/21 09:50:51;;;;;;;10.77;10.18;;;;;;;-143.83;100.00;62900.06;4910255;29;20039;-76
2022/11/21 09:53:24;;;;;;;10.35;9.85;;;;;;;-143.83;100.00;62900.06;4922126;29;20547;-76
2022/11/21 09:55:58;;;;;;;10.10;9.60;;;;;;;-143.83;100.00;62900.06;4923964;29;20043;-74
2022/11/21 09:58:23;;;;;;;;;;;;;;;-143.83;100.00;62900.06;4929610;29;20027;-77
2022/11/21 10:00:52;;;;;;;9.90;9.40;;;;;;;-143.83;100.00;62900.06;4932069;29;19937;-75
2022/11/21 10:03:20;;;;;;;10.98;10.38;;;;;;;-143.83;100.00;62900.06;4924371;29;20044;-75
2022/11/21 10:05:53;;;;;;;12.32;11.60;;;;;;;-143.83;100.00;62900.06;4921246;29;20172;-70
2022/11/21 10:08:29;;;;;;;10.38;9.88;;;;;;;-143.83;100.00;62900.06;4920349;29;20039;-71
2022/11/21 10:11:02;;;;;;;10.05;9.55;;;;;;;-143.83;100.00;62900.06;4922954;29;20031;-69
2022/11/21 10:13:42;;;;;;;10.15;9.65;;;;;;;-143.83;100.00;62900.06;4921026;29;20040;-69
2022/11/21 10:16:39;;;;;;;10.82;10.23;;;;;;;-143.83;100.00;62900.06;4921226;29;20038;-70
2022/11/21 10:19:24;;;;;;;12.30;11.60;;;;;;;-143.83;100.00;62900.06;4904400;29;20047;-69
2022/11/21 10:22:16;;;;;;;10.68;10.10;;;;;;;-143.83;100.00;62900.06;4922484;29;20381;-69
2022/11/21 10:25:10;;;;;;;10.60;10.05;;;;;;;-143.83;100.00;62900.06;4905801;29;20147;-69
2022/11/21 10:27:59;;;;;;;10.20;9.70;;;;;;;-143.83;100.00;62900.06;4928365;29;20059;-69
2022/11/21 10:30:24;;;;;;;10.65;10.10;;;;;;;-143.83;100.00;62900.06;4927327;29;20039;-74
2022/11/21 10:33:02;;;;;;;10.02;9.52;;;;;;;-143.83;100.00;62900.06;4918105;29;20051;-77
2022/11/21 10:35:59;;;;;;;10.65;10.07;;;;;;;-143.83;100.00;62900.06;4900906;29;20092;-75
2022/11/21 10:38:28;;;;;;;10.60;10.02;;;;;;;-143.83;100.00;62900.06;4913135;29;20032;-76
2022/11/21 10:41:03;;;;;;;10.30;9.80;;;;;;;-143.83;100.00;62900.06;4912029;29;20586;-75
2022/11/21 10:46:26;;;;;;;10.57;10.02;;;;;;;-143.83;100.00;62900.06;4930797;29;20030;-75
2022/11/21 10:49:00;;;;;;;10.85;10.25;;;;;;;-143.83;100.00;62900.06;4928451;29;20434;-77
2022/11/21 10:51:57;;;;;;;10.40;9.90;;;;;;;-143.83;100.00;62900.06;4928423;29;20032;-79
2022/11/21 10:54:31;;;;;;;10.25;9.75;;;;;;;-143.83;100.00;62900.06;4927137;29;20072;-77
2022/11/21 10:57:19;;;;;;;10.13;9.63;;;;;;;-143.83;100.00;62900.06;4934116;29;20028;-77
2022/11/21 11:00:01;;;;;;;11.05;10.45;;;;;;;-143.83;100.00;62900.06;4938882;29;20039;-79
2022/11/21 11:02:29;;;;;;;10.70;10.10;;;;;;;-143.83;100.00;62900.06;4915889;29;20053;-79
2022/11/21 11:05:16;;;;;;;10.00;9.50;;;;;;;-143.83;100.00;62900.06;4915467;29;20087;-74
2022/11/21 11:08:10;;;;;;;10.13;9.63;;;;;;;-143.83;100.00;62900.06;4928402;29;20031;-73
2022/11/21 11:10:45;;;;;;;10.40;9.90;;;;;;;-143.83;100.00;62900.06;4914625;29;20038;-75
2022/11/21 11:16:09;;;;;;;9.95;9.45;;;;;;;-143.83;100.00;62900.06;4925915;29;20078;-77
2022/11/21 11:18:44;;;;;;;10.60;10.05;;;;;;;-143.83;100.00;62900.06;4930997;29;20392;-76
2022/11/21 11:21:20;;;;;;;10.52;10.00;;;;;;;-143.83;100.00;62900.06;4933035;29;20542;-77
2022/11/21 11:23:48;;;;;;;10.75;10.15;;;;;;;-143.83;100.00;62900.06;4934639;29;20028;-76
2022/11/21 11:26:27;;;;;;;11.13;10.52;;;;;;;-143.83;100.00;62900.06;4930913;29;20035;-78
2022/11/21 11:29:08;;;;;;;10.65;10.07;;;;;;;-143.83;100.00;62900.06;4910195;29;20095;-80
2022/11/21 11:31:49;;;;;;;10.60;10.10;;;;;;;-143.83;100.00;62900.06;4932708;29;20027;-77